sensor_id;sensor_type;location;lat;lon;timestamp;pressure;altitude;pressure_sealevel;temperature;humidity
46682;BME280;34101;53.430;-2.224;2023-05-21T00:00:20;102132.43;;;14.19;51.90
46682;BME280;34101;53.430;-2.224;2023-05-21T00:02:48;102131.75;;;14.19;52.12
46682;BME280;34101;53.430;-2.224;2023-05-21T00:05:15;102131.88;;;14.15;52.35
46682;BME280;34101;53.430;-2.224;2023-05-21T00:07:43;102123.56;;;14.10;52.20
46682;BME280;34101;53.430;-2.224;2023-05-21T00:10:10;102123.39;;;14.07;52.54
46682;BME280;34101;53.430;-2.224;2023-05-21T00:12:38;102123.09;;;14.08;52.29
46682;BME280;34101;53.430;-2.224;2023-05-21T00:15:06;102121.89;;;14.09;52.39
46682;BME280;34101;53.430;-2.224;2023-05-21T00:17:34;102120.26;;;14.13;52.68
46682;BME280;34101;53.430;-2.224;2023-05-21T00:20:01;102118.67;;;14.11;52.71
46682;BME280;34101;53.430;-2.224;2023-05-21T00:22:28;102112.96;;;14.09;52.61
46682;BME280;34101;53.430;-2.224;2023-05-21T00:24:56;102113.96;;;14.08;52.69
46682;BME280;34101;53.430;-2.224;2023-05-21T00:27:23;102117.25;;;14.11;52.37
46682;BME280;34101;53.430;-2.224;2023-05-21T00:29:50;102116.04;;;14.16;52.64
46682;BME280;34101;53.430;-2.224;2023-05-21T00:32:18;102119.20;;;14.20;52.78
46682;BME280;34101;53.430;-2.224;2023-05-21T00:34:45;102115.88;;;14.18;52.81
46682;BME280;34101;53.430;-2.224;2023-05-21T00:37:13;102113.39;;;14.17;52.94
46682;BME280;34101;53.430;-2.224;2023-05-21T00:39:40;102107.04;;;14.13;53.19
46682;BME280;34101;53.430;-2.224;2023-05-21T00:42:07;102101.97;;;14.12;53.50
46682;BME280;34101;53.430;-2.224;2023-05-21T00:44:35;102104.51;;;14.17;53.32
46682;BME280;34101;53.430;-2.224;2023-05-21T00:47:03;102106.89;;;14.20;52.99
46682;BME280;34101;53.430;-2.224;2023-05-21T00:49:31;102109.32;;;14.18;52.79
46682;BME280;34101;53.430;-2.224;2023-05-21T00:51:59;102106.82;;;14.21;52.52
46682;BME280;34101;53.430;-2.224;2023-05-21T00:54:31;102109.13;;;14.22;52.57
46682;BME280;34101;53.430;-2.224;2023-05-21T00:57:01;102109.14;;;14.20;52.71
46682;BME280;34101;53.430;-2.224;2023-05-21T00:59:31;102108.70;;;14.18;52.66
46682;BME280;34101;53.430;-2.224;2023-05-21T01:02:00;102105.40;;;14.19;52.84
46682;BME280;34101;53.430;-2.224;2023-05-21T01:04:28;102106.53;;;14.17;52.88
46682;BME280;34101;53.430;-2.224;2023-05-21T01:06:55;102102.81;;;14.16;53.30
46682;BME280;34101;53.430;-2.224;2023-05-21T01:09:24;102103.13;;;14.17;53.08
46682;BME280;34101;53.430;-2.224;2023-05-21T01:11:52;102101.14;;;14.16;53.23
46682;BME280;34101;53.430;-2.224;2023-05-21T01:14:21;102104.64;;;14.11;53.34
46682;BME280;34101;53.430;-2.224;2023-05-21T01:16:50;102106.99;;;14.09;53.31
46682;BME280;34101;53.430;-2.224;2023-05-21T01:19:21;102103.22;;;14.10;52.88
46682;BME280;34101;53.430;-2.224;2023-05-21T01:21:51;102099.96;;;14.08;52.80
46682;BME280;34101;53.430;-2.224;2023-05-21T01:24:18;102103.22;;;14.01;52.80
46682;BME280;34101;53.430;-2.224;2023-05-21T01:26:46;102102.73;;;13.96;53.42
46682;BME280;34101;53.430;-2.224;2023-05-21T01:29:14;102099.07;;;13.90;53.71
46682;BME280;34101;53.430;-2.224;2023-05-21T01:31:51;102093.92;;;13.85;54.00
46682;BME280;34101;53.430;-2.224;2023-05-21T01:34:22;102092.45;;;13.82;54.03
46682;BME280;34101;53.430;-2.224;2023-05-21T01:36:58;102092.12;;;13.84;53.78
46682;BME280;34101;53.430;-2.224;2023-05-21T01:39:31;102087.94;;;13.82;53.54
46682;BME280;34101;53.430;-2.224;2023-05-21T01:42:02;102085.12;;;13.81;53.64
46682;BME280;34101;53.430;-2.224;2023-05-21T01:44:32;102085.40;;;13.78;53.69
46682;BME280;34101;53.430;-2.224;2023-05-21T01:47:02;102084.43;;;13.75;53.76
46682;BME280;34101;53.430;-2.224;2023-05-21T01:49:30;102084.48;;;13.73;54.11
46682;BME280;34101;53.430;-2.224;2023-05-21T01:51:57;102082.91;;;13.71;54.21
46682;BME280;34101;53.430;-2.224;2023-05-21T01:54:24;102079.25;;;13.69;54.38
46682;BME280;34101;53.430;-2.224;2023-05-21T01:56:52;102074.09;;;13.64;54.48
46682;BME280;34101;53.430;-2.224;2023-05-21T01:59:19;102073.92;;;13.60;54.76
46682;BME280;34101;53.430;-2.224;2023-05-21T02:02:34;102071.68;;;13.57;54.85
46682;BME280;34101;53.430;-2.224;2023-05-21T02:05:01;102070.08;;;13.58;54.63
46682;BME280;34101;53.430;-2.224;2023-05-21T02:07:29;102072.03;;;13.56;54.55
46682;BME280;34101;53.430;-2.224;2023-05-21T02:09:56;102067.34;;;13.53;54.59
46682;BME280;34101;53.430;-2.224;2023-05-21T02:12:23;102064.03;;;13.50;54.66
46682;BME280;34101;53.430;-2.224;2023-05-21T02:14:50;102061.46;;;13.46;54.81
46682;BME280;34101;53.430;-2.224;2023-05-21T02:17:17;102060.81;;;13.46;54.88
46682;BME280;34101;53.430;-2.224;2023-05-21T02:19:45;102060.39;;;13.45;55.04
46682;BME280;34101;53.430;-2.224;2023-05-21T02:22:13;102058.77;;;13.43;55.20
46682;BME280;34101;53.430;-2.224;2023-05-21T02:24:40;102058.97;;;13.40;55.27
46682;BME280;34101;53.430;-2.224;2023-05-21T02:27:08;102060.97;;;13.36;55.68
46682;BME280;34101;53.430;-2.224;2023-05-21T02:29:35;102062.73;;;13.34;56.03
46682;BME280;34101;53.430;-2.224;2023-05-21T02:32:03;102059.24;;;13.27;55.95
46682;BME280;34101;53.430;-2.224;2023-05-21T02:34:30;102056.00;;;13.15;56.06
46682;BME280;34101;53.430;-2.224;2023-05-21T02:36:57;102060.92;;;13.08;56.49
46682;BME280;34101;53.430;-2.224;2023-05-21T02:39:25;102060.24;;;13.03;56.81
46682;BME280;34101;53.430;-2.224;2023-05-21T02:41:52;102056.18;;;13.01;56.85
46682;BME280;34101;53.430;-2.224;2023-05-21T02:44:20;102056.57;;;12.95;57.11
46682;BME280;34101;53.430;-2.224;2023-05-21T02:46:47;102056.04;;;12.91;57.14
46682;BME280;34101;53.430;-2.224;2023-05-21T02:49:15;102055.81;;;12.86;57.35
46682;BME280;34101;53.430;-2.224;2023-05-21T02:51:42;102058.05;;;12.86;57.25
46682;BME280;34101;53.430;-2.224;2023-05-21T02:54:09;102059.23;;;12.81;57.38
46682;BME280;34101;53.430;-2.224;2023-05-21T02:56:37;102057.97;;;12.75;57.25
46682;BME280;34101;53.430;-2.224;2023-05-21T02:59:04;102056.12;;;12.64;57.48
46682;BME280;34101;53.430;-2.224;2023-05-21T03:01:33;102053.77;;;12.53;57.87
46682;BME280;34101;53.430;-2.224;2023-05-21T03:04:00;102048.75;;;12.53;58.17
46682;BME280;34101;53.430;-2.224;2023-05-21T03:06:28;102044.85;;;12.55;58.19
46682;BME280;34101;53.430;-2.224;2023-05-21T03:08:55;102044.30;;;12.54;58.29
46682;BME280;34101;53.430;-2.224;2023-05-21T03:11:28;102044.79;;;12.54;58.28
46682;BME280;34101;53.430;-2.224;2023-05-21T03:13:55;102045.14;;;12.45;58.44
46682;BME280;34101;53.430;-2.224;2023-05-21T03:16:23;102043.80;;;12.40;58.67
46682;BME280;34101;53.430;-2.224;2023-05-21T03:18:50;102046.94;;;12.35;58.81
46682;BME280;34101;53.430;-2.224;2023-05-21T03:21:17;102044.47;;;12.28;58.99
46682;BME280;34101;53.430;-2.224;2023-05-21T03:23:45;102041.68;;;12.27;59.19
46682;BME280;34101;53.430;-2.224;2023-05-21T03:26:13;102040.71;;;12.22;59.11
46682;BME280;34101;53.430;-2.224;2023-05-21T03:28:40;102034.95;;;12.19;59.47
46682;BME280;34101;53.430;-2.224;2023-05-21T03:31:07;102032.49;;;12.19;59.56
46682;BME280;34101;53.430;-2.224;2023-05-21T03:33:34;102029.20;;;12.17;59.52
46682;BME280;34101;53.430;-2.224;2023-05-21T03:36:02;102032.36;;;12.16;59.81
46682;BME280;34101;53.430;-2.224;2023-05-21T03:38:29;102032.97;;;12.21;59.67
46682;BME280;34101;53.430;-2.224;2023-05-21T03:40:57;102030.09;;;12.22;59.46
46682;BME280;34101;53.430;-2.224;2023-05-21T03:43:24;102026.74;;;12.24;59.42
46682;BME280;34101;53.430;-2.224;2023-05-21T03:45:53;102026.78;;;12.28;59.29
46682;BME280;34101;53.430;-2.224;2023-05-21T03:48:21;102032.16;;;12.29;59.40
46682;BME280;34101;53.430;-2.224;2023-05-21T03:50:48;102028.57;;;12.32;59.27
46682;BME280;34101;53.430;-2.224;2023-05-21T03:53:16;102027.53;;;12.35;59.37
46682;BME280;34101;53.430;-2.224;2023-05-21T03:55:44;102023.11;;;12.31;59.33
46682;BME280;34101;53.430;-2.224;2023-05-21T03:58:11;102026.33;;;12.27;59.39
46682;BME280;34101;53.430;-2.224;2023-05-21T04:00:39;102024.66;;;12.26;59.65
46682;BME280;34101;53.430;-2.224;2023-05-21T04:03:07;102020.63;;;12.26;59.88
46682;BME280;34101;53.430;-2.224;2023-05-21T04:05:34;102018.02;;;12.33;59.80
46682;BME280;34101;53.430;-2.224;2023-05-21T04:08:01;102014.14;;;12.32;59.65
46682;BME280;34101;53.430;-2.224;2023-05-21T04:10:28;102013.32;;;12.33;59.60
46682;BME280;34101;53.430;-2.224;2023-05-21T04:12:56;102011.75;;;12.33;59.79
46682;BME280;34101;53.430;-2.224;2023-05-21T04:15:23;102012.13;;;12.34;59.82
46682;BME280;34101;53.430;-2.224;2023-05-21T04:17:51;102010.54;;;12.36;59.72
46682;BME280;34101;53.430;-2.224;2023-05-21T04:20:18;102006.77;;;12.32;59.95
46682;BME280;34101;53.430;-2.224;2023-05-21T04:22:46;102006.03;;;12.33;60.10
46682;BME280;34101;53.430;-2.224;2023-05-21T04:25:13;102005.48;;;12.32;60.13
46682;BME280;34101;53.430;-2.224;2023-05-21T04:27:41;102004.83;;;12.31;60.21
46682;BME280;34101;53.430;-2.224;2023-05-21T04:30:08;102003.18;;;12.30;60.38
46682;BME280;34101;53.430;-2.224;2023-05-21T04:32:35;102005.63;;;12.32;60.27
46682;BME280;34101;53.430;-2.224;2023-05-21T04:35:03;102008.81;;;12.31;60.27
46682;BME280;34101;53.430;-2.224;2023-05-21T04:37:31;102009.46;;;12.32;60.31
46682;BME280;34101;53.430;-2.224;2023-05-21T04:39:59;102005.38;;;12.39;60.42
46682;BME280;34101;53.430;-2.224;2023-05-21T04:42:26;102005.63;;;12.48;60.13
46682;BME280;34101;53.430;-2.224;2023-05-21T04:44:53;102005.07;;;12.54;60.05
46682;BME280;34101;53.430;-2.224;2023-05-21T04:47:21;102006.66;;;12.63;60.04
46682;BME280;34101;53.430;-2.224;2023-05-21T04:49:48;102007.75;;;12.70;59.87
46682;BME280;34101;53.430;-2.224;2023-05-21T04:52:16;102009.52;;;12.76;59.64
46682;BME280;34101;53.430;-2.224;2023-05-21T04:54:43;102007.61;;;12.80;59.67
46682;BME280;34101;53.430;-2.224;2023-05-21T04:57:11;102009.63;;;12.79;59.78
46682;BME280;34101;53.430;-2.224;2023-05-21T04:59:38;102007.16;;;12.78;59.73
46682;BME280;34101;53.430;-2.224;2023-05-21T05:02:06;102008.30;;;12.75;59.80
46682;BME280;34101;53.430;-2.224;2023-05-21T05:04:34;102009.25;;;12.76;59.94
46682;BME280;34101;53.430;-2.224;2023-05-21T05:07:01;102006.62;;;12.80;59.92
46682;BME280;34101;53.430;-2.224;2023-05-21T05:09:28;102006.25;;;12.85;59.81
46682;BME280;34101;53.430;-2.224;2023-05-21T05:11:55;102008.47;;;12.89;59.83
46682;BME280;34101;53.430;-2.224;2023-05-21T05:14:23;102009.40;;;12.94;59.68
46682;BME280;34101;53.430;-2.224;2023-05-21T05:16:50;102010.72;;;12.96;59.37
46682;BME280;34101;53.430;-2.224;2023-05-21T05:19:18;102005.79;;;12.98;59.30
46682;BME280;34101;53.430;-2.224;2023-05-21T05:21:45;102003.48;;;13.04;59.45
46682;BME280;34101;53.430;-2.224;2023-05-21T05:24:13;102002.21;;;13.06;59.31
46682;BME280;34101;53.430;-2.224;2023-05-21T05:26:41;102006.22;;;13.12;58.98
46682;BME280;34101;53.430;-2.224;2023-05-21T05:29:08;102008.31;;;13.16;58.96
46682;BME280;34101;53.430;-2.224;2023-05-21T05:31:36;102008.14;;;13.22;58.83
46682;BME280;34101;53.430;-2.224;2023-05-21T05:34:03;102005.32;;;13.30;58.66
46682;BME280;34101;53.430;-2.224;2023-05-21T05:36:31;102004.47;;;13.38;58.12
46682;BME280;34101;53.430;-2.224;2023-05-21T05:38:59;102006.40;;;13.46;57.62
46682;BME280;34101;53.430;-2.224;2023-05-21T05:41:26;102004.70;;;13.53;57.36
46682;BME280;34101;53.430;-2.224;2023-05-21T05:43:54;102008.87;;;13.62;57.15
46682;BME280;34101;53.430;-2.224;2023-05-21T05:46:22;102010.78;;;13.69;57.02
46682;BME280;34101;53.430;-2.224;2023-05-21T05:48:49;102010.38;;;13.79;57.12
46682;BME280;34101;53.430;-2.224;2023-05-21T05:51:16;102009.19;;;13.87;56.32
46682;BME280;34101;53.430;-2.224;2023-05-21T05:53:44;102008.86;;;13.94;56.08
46682;BME280;34101;53.430;-2.224;2023-05-21T05:56:12;102010.12;;;13.99;55.62
46682;BME280;34101;53.430;-2.224;2023-05-21T05:58:39;102013.57;;;14.06;55.68
46682;BME280;34101;53.430;-2.224;2023-05-21T06:01:07;102015.42;;;14.16;55.05
46682;BME280;34101;53.430;-2.224;2023-05-21T06:03:34;102018.74;;;14.22;54.67
46682;BME280;34101;53.430;-2.224;2023-05-21T06:06:02;102023.34;;;14.31;54.33
46682;BME280;34101;53.430;-2.224;2023-05-21T06:08:29;102026.07;;;14.42;53.90
46682;BME280;34101;53.430;-2.224;2023-05-21T06:10:56;102027.88;;;14.54;53.74
46682;BME280;34101;53.430;-2.224;2023-05-21T06:13:23;102031.42;;;14.68;53.03
46682;BME280;34101;53.430;-2.224;2023-05-21T06:15:52;102031.40;;;14.79;52.54
46682;BME280;34101;53.430;-2.224;2023-05-21T06:18:19;102030.57;;;14.87;52.04
46682;BME280;34101;53.430;-2.224;2023-05-21T06:20:46;102033.94;;;14.96;51.88
46682;BME280;34101;53.430;-2.224;2023-05-21T06:23:14;102034.83;;;15.07;51.69
46682;BME280;34101;53.430;-2.224;2023-05-21T06:25:42;102032.20;;;15.15;51.28
46682;BME280;34101;53.430;-2.224;2023-05-21T06:28:09;102036.51;;;15.29;51.03
46682;BME280;34101;53.430;-2.224;2023-05-21T06:30:37;102038.91;;;15.40;50.74
46682;BME280;34101;53.430;-2.224;2023-05-21T06:33:04;102035.78;;;15.52;50.14
46682;BME280;34101;53.430;-2.224;2023-05-21T06:35:31;102032.86;;;15.57;49.77
46682;BME280;34101;53.430;-2.224;2023-05-21T06:37:59;102037.77;;;15.67;49.30
46682;BME280;34101;53.430;-2.224;2023-05-21T06:40:26;102039.07;;;15.74;49.10
46682;BME280;34101;53.430;-2.224;2023-05-21T06:42:54;102034.54;;;15.82;48.81
46682;BME280;34101;53.430;-2.224;2023-05-21T06:45:22;102036.44;;;15.89;48.58
46682;BME280;34101;53.430;-2.224;2023-05-21T06:47:49;102036.90;;;15.99;48.42
46682;BME280;34101;53.430;-2.224;2023-05-21T06:50:16;102036.89;;;16.02;48.00
46682;BME280;34101;53.430;-2.224;2023-05-21T06:52:43;102040.29;;;16.16;47.77
46682;BME280;34101;53.430;-2.224;2023-05-21T06:55:16;102040.00;;;16.23;47.80
46682;BME280;34101;53.430;-2.224;2023-05-21T06:57:43;102040.15;;;16.23;47.98
46682;BME280;34101;53.430;-2.224;2023-05-21T07:00:12;102046.01;;;16.27;47.50
46682;BME280;34101;53.430;-2.224;2023-05-21T07:02:39;102043.27;;;16.40;46.98
46682;BME280;34101;53.430;-2.224;2023-05-21T07:05:07;102041.30;;;16.51;45.99
46682;BME280;34101;53.430;-2.224;2023-05-21T07:07:36;102045.78;;;16.46;46.87
46682;BME280;34101;53.430;-2.224;2023-05-21T07:10:03;102045.94;;;16.60;46.38
46682;BME280;34101;53.430;-2.224;2023-05-21T07:12:30;102045.25;;;16.70;45.74
46682;BME280;34101;53.430;-2.224;2023-05-21T07:14:58;102048.29;;;16.66;45.11
46682;BME280;34101;53.430;-2.224;2023-05-21T07:17:25;102045.70;;;16.84;44.56
46682;BME280;34101;53.430;-2.224;2023-05-21T07:19:52;102048.41;;;17.02;45.24
46682;BME280;34101;53.430;-2.224;2023-05-21T07:22:20;102044.53;;;17.18;44.38
46682;BME280;34101;53.430;-2.224;2023-05-21T07:24:47;102047.07;;;17.32;43.52
46682;BME280;34101;53.430;-2.224;2023-05-21T07:27:15;102042.93;;;17.45;42.35
46682;BME280;34101;53.430;-2.224;2023-05-21T07:29:42;102045.03;;;17.58;43.00
46682;BME280;34101;53.430;-2.224;2023-05-21T07:32:09;102037.94;;;17.68;40.31
46682;BME280;34101;53.430;-2.224;2023-05-21T07:34:37;102039.28;;;17.74;40.22
46682;BME280;34101;53.430;-2.224;2023-05-21T07:37:04;102041.21;;;17.86;41.03
46682;BME280;34101;53.430;-2.224;2023-05-21T07:39:32;102043.71;;;18.09;41.36
46682;BME280;34101;53.430;-2.224;2023-05-21T07:41:59;102041.90;;;18.51;38.40
46682;BME280;34101;53.430;-2.224;2023-05-21T07:44:27;102040.00;;;19.24;37.09
46682;BME280;34101;53.430;-2.224;2023-05-21T07:46:55;102042.64;;;19.96;34.43
46682;BME280;34101;53.430;-2.224;2023-05-21T07:49:27;102040.54;;;20.52;33.40
46682;BME280;34101;53.430;-2.224;2023-05-21T07:51:54;102038.32;;;21.02;31.58
46682;BME280;34101;53.430;-2.224;2023-05-21T07:54:22;102037.04;;;21.59;30.83
46682;BME280;34101;53.430;-2.224;2023-05-21T07:56:49;102039.87;;;22.16;30.59
46682;BME280;34101;53.430;-2.224;2023-05-21T07:59:17;102036.35;;;22.51;29.63
46682;BME280;34101;53.430;-2.224;2023-05-21T08:01:44;102039.79;;;22.77;29.19
46682;BME280;34101;53.430;-2.224;2023-05-21T08:04:11;102037.04;;;23.16;29.31
46682;BME280;34101;53.430;-2.224;2023-05-21T08:06:39;102039.97;;;23.44;27.77
46682;BME280;34101;53.430;-2.224;2023-05-21T08:09:12;102038.99;;;23.62;26.48
46682;BME280;34101;53.430;-2.224;2023-05-21T08:11:39;102038.07;;;21.97;28.82
46682;BME280;34101;53.430;-2.224;2023-05-21T08:14:06;102038.08;;;23.24;27.51
46682;BME280;34101;53.430;-2.224;2023-05-21T08:16:34;102038.40;;;23.72;26.24
46682;BME280;34101;53.430;-2.224;2023-05-21T08:19:01;102036.50;;;24.07;26.44
46682;BME280;34101;53.430;-2.224;2023-05-21T08:21:29;102036.30;;;24.60;25.47
46682;BME280;34101;53.430;-2.224;2023-05-21T08:23:56;102034.71;;;25.07;25.29
46682;BME280;34101;53.430;-2.224;2023-05-21T08:26:24;102033.02;;;25.55;24.01
46682;BME280;34101;53.430;-2.224;2023-05-21T08:28:51;102026.44;;;25.89;23.29
46682;BME280;34101;53.430;-2.224;2023-05-21T08:31:18;102026.17;;;26.35;22.73
46682;BME280;34101;53.430;-2.224;2023-05-21T08:33:49;102023.94;;;26.75;22.60
46682;BME280;34101;53.430;-2.224;2023-05-21T08:36:17;102021.43;;;27.19;22.18
46682;BME280;34101;53.430;-2.224;2023-05-21T08:38:45;102023.06;;;27.59;21.57
46682;BME280;34101;53.430;-2.224;2023-05-21T08:41:14;102023.71;;;27.66;20.06
46682;BME280;34101;53.430;-2.224;2023-05-21T08:43:42;102020.01;;;27.02;21.51
46682;BME280;34101;53.430;-2.224;2023-05-21T08:46:12;102018.51;;;26.91;21.50
46682;BME280;34101;53.430;-2.224;2023-05-21T08:48:42;102021.84;;;27.15;21.20
46682;BME280;34101;53.430;-2.224;2023-05-21T08:51:10;102022.08;;;28.07;20.36
46682;BME280;34101;53.430;-2.224;2023-05-21T08:53:38;102019.23;;;28.40;19.31
46682;BME280;34101;53.430;-2.224;2023-05-21T08:56:06;102021.80;;;26.28;22.13
46682;BME280;34101;53.430;-2.224;2023-05-21T08:58:34;102022.35;;;26.34;21.74
46682;BME280;34101;53.430;-2.224;2023-05-21T09:01:02;102022.24;;;25.92;22.31
46682;BME280;34101;53.430;-2.224;2023-05-21T09:03:30;102019.74;;;27.34;21.15
46682;BME280;34101;53.430;-2.224;2023-05-21T09:05:57;102016.26;;;28.29;19.57
46682;BME280;34101;53.430;-2.224;2023-05-21T09:08:30;102017.59;;;28.64;19.63
46682;BME280;34101;53.430;-2.224;2023-05-21T09:10:57;102013.71;;;28.92;18.40
46682;BME280;34101;53.430;-2.224;2023-05-21T09:13:26;102010.86;;;29.16;17.92
46682;BME280;34101;53.430;-2.224;2023-05-21T09:15:54;102012.99;;;27.91;19.70
46682;BME280;34101;53.430;-2.224;2023-05-21T09:18:21;102008.24;;;27.54;19.83
46682;BME280;34101;53.430;-2.224;2023-05-21T09:20:49;102007.34;;;28.64;19.25
46682;BME280;34101;53.430;-2.224;2023-05-21T09:23:17;102004.37;;;29.14;18.67
46682;BME280;34101;53.430;-2.224;2023-05-21T09:25:45;102002.57;;;29.50;17.65
46682;BME280;34101;53.430;-2.224;2023-05-21T09:28:15;102000.20;;;28.73;17.89
46682;BME280;34101;53.430;-2.224;2023-05-21T09:30:44;102001.24;;;29.55;17.97
46682;BME280;34101;53.430;-2.224;2023-05-21T09:33:11;101996.67;;;29.92;16.88
46682;BME280;34101;53.430;-2.224;2023-05-21T09:35:50;101993.20;;;30.01;16.26
46682;BME280;34101;53.430;-2.224;2023-05-21T09:38:17;101988.91;;;29.04;17.39
46682;BME280;34101;53.430;-2.224;2023-05-21T09:40:47;101980.07;;;30.10;16.21
46682;BME280;34101;53.430;-2.224;2023-05-21T09:43:16;101980.92;;;30.61;16.19
46682;BME280;34101;53.430;-2.224;2023-05-21T09:45:52;101979.92;;;30.78;15.69
46682;BME280;34101;53.430;-2.224;2023-05-21T09:48:36;101982.16;;;30.95;15.80
46682;BME280;34101;53.430;-2.224;2023-05-21T09:51:09;101982.85;;;31.02;14.97
46682;BME280;34101;53.430;-2.224;2023-05-21T09:53:36;101981.52;;;31.29;14.52
46682;BME280;34101;53.430;-2.224;2023-05-21T09:56:08;101978.51;;;29.56;15.94
46682;BME280;34101;53.430;-2.224;2023-05-21T09:58:35;101971.31;;;30.60;14.93
46682;BME280;34101;53.430;-2.224;2023-05-21T10:01:04;101973.89;;;30.96;14.96
46682;BME280;34101;53.430;-2.224;2023-05-21T10:03:32;101972.53;;;31.14;14.07
46682;BME280;34101;53.430;-2.224;2023-05-21T10:06:07;101976.24;;;31.22;14.59
46682;BME280;34101;53.430;-2.224;2023-05-21T10:08:35;101972.50;;;31.23;14.57
46682;BME280;34101;53.430;-2.224;2023-05-21T10:11:07;101968.64;;;31.17;14.34
46682;BME280;34101;53.430;-2.224;2023-05-21T10:13:43;101971.48;;;31.51;14.31
46682;BME280;34101;53.430;-2.224;2023-05-21T10:16:11;101968.62;;;31.74;13.71
46682;BME280;34101;53.430;-2.224;2023-05-21T10:18:39;101963.63;;;31.94;13.80
46682;BME280;34101;53.430;-2.224;2023-05-21T10:21:08;101964.28;;;32.00;13.87
46682;BME280;34101;53.430;-2.224;2023-05-21T10:23:36;101961.71;;;32.33;13.65
46682;BME280;34101;53.430;-2.224;2023-05-21T10:26:04;101960.67;;;32.62;13.90
46682;BME280;34101;53.430;-2.224;2023-05-21T10:28:33;101954.82;;;32.23;14.02
46682;BME280;34101;53.430;-2.224;2023-05-21T10:31:01;101957.84;;;32.36;14.32
46682;BME280;34101;53.430;-2.224;2023-05-21T10:33:29;101951.37;;;32.18;14.37
46682;BME280;34101;53.430;-2.224;2023-05-21T10:35:57;101949.18;;;32.45;13.62
46682;BME280;34101;53.430;-2.224;2023-05-21T10:38:26;101943.76;;;32.33;13.55
46682;BME280;34101;53.430;-2.224;2023-05-21T10:40:55;101945.40;;;32.15;14.18
46682;BME280;34101;53.430;-2.224;2023-05-21T10:43:37;101947.59;;;32.48;14.83
46682;BME280;34101;53.430;-2.224;2023-05-21T10:46:28;101944.89;;;32.77;13.69
46682;BME280;34101;53.430;-2.224;2023-05-21T10:49:06;101943.82;;;32.49;13.56
46682;BME280;34101;53.430;-2.224;2023-05-21T10:51:47;101940.71;;;32.80;13.53
46682;BME280;34101;53.430;-2.224;2023-05-21T10:54:43;101942.90;;;33.01;12.92
46682;BME280;34101;53.430;-2.224;2023-05-21T10:57:28;101944.81;;;32.77;14.11
46682;BME280;34101;53.430;-2.224;2023-05-21T11:00:00;101949.03;;;32.81;13.70
46682;BME280;34101;53.430;-2.224;2023-05-21T11:02:28;101941.01;;;32.63;14.04
46682;BME280;34101;53.430;-2.224;2023-05-21T11:04:58;101937.30;;;32.88;13.40
46682;BME280;34101;53.430;-2.224;2023-05-21T11:07:50;101929.39;;;32.22;13.82
46682;BME280;34101;53.430;-2.224;2023-05-21T11:12:33;101933.74;;;32.17;14.27
46682;BME280;34101;53.430;-2.224;2023-05-21T11:15:01;101933.88;;;31.69;14.88
46682;BME280;34101;53.430;-2.224;2023-05-21T11:17:44;101933.44;;;31.45;15.18
46682;BME280;34101;53.430;-2.224;2023-05-21T11:20:16;101928.54;;;31.10;15.65
46682;BME280;34101;53.430;-2.224;2023-05-21T11:22:46;101929.64;;;31.01;15.31
46682;BME280;34101;53.430;-2.224;2023-05-21T11:25:14;101927.88;;;30.95;15.83
46682;BME280;34101;53.430;-2.224;2023-05-21T11:27:42;101927.72;;;31.11;15.59
46682;BME280;34101;53.430;-2.224;2023-05-21T11:30:17;101925.37;;;31.32;15.69
46682;BME280;34101;53.430;-2.224;2023-05-21T11:33:17;101919.96;;;31.39;15.54
46682;BME280;34101;53.430;-2.224;2023-05-21T11:35:56;101919.06;;;31.66;14.92
46682;BME280;34101;53.430;-2.224;2023-05-21T11:38:27;101922.41;;;31.44;15.62
46682;BME280;34101;53.430;-2.224;2023-05-21T11:41:00;101924.72;;;31.27;15.98
46682;BME280;34101;53.430;-2.224;2023-05-21T11:43:28;101919.63;;;31.27;15.39
46682;BME280;34101;53.430;-2.224;2023-05-21T11:45:56;101917.80;;;31.56;15.16
46682;BME280;34101;53.430;-2.224;2023-05-21T11:48:24;101916.43;;;31.52;15.70
46682;BME280;34101;53.430;-2.224;2023-05-21T11:50:52;101914.41;;;31.54;15.64
46682;BME280;34101;53.430;-2.224;2023-05-21T11:53:19;101909.96;;;31.44;16.16
46682;BME280;34101;53.430;-2.224;2023-05-21T11:55:46;101915.40;;;31.39;16.34
46682;BME280;34101;53.430;-2.224;2023-05-21T11:58:14;101913.02;;;31.74;16.11
46682;BME280;34101;53.430;-2.224;2023-05-21T12:00:44;101912.14;;;31.51;15.04
46682;BME280;34101;53.430;-2.224;2023-05-21T12:03:14;101915.89;;;31.05;15.31
46682;BME280;34101;53.430;-2.224;2023-05-21T12:05:45;101911.08;;;30.95;15.11
46682;BME280;34101;53.430;-2.224;2023-05-21T12:08:19;101919.41;;;30.77;16.14
46682;BME280;34101;53.430;-2.224;2023-05-21T12:10:47;101920.08;;;30.81;15.82
46682;BME280;34101;53.430;-2.224;2023-05-21T12:13:15;101913.81;;;30.81;15.61
46682;BME280;34101;53.430;-2.224;2023-05-21T12:15:44;101912.94;;;30.33;15.72
46682;BME280;34101;53.430;-2.224;2023-05-21T12:18:14;101915.75;;;29.89;16.13
46682;BME280;34101;53.430;-2.224;2023-05-21T12:20:43;101915.63;;;29.46;15.77
46682;BME280;34101;53.430;-2.224;2023-05-21T12:23:18;101920.17;;;29.17;16.60
46682;BME280;34101;53.430;-2.224;2023-05-21T12:25:45;101905.80;;;28.68;16.63
46682;BME280;34101;53.430;-2.224;2023-05-21T12:28:14;101911.50;;;28.31;17.31
46682;BME280;34101;53.430;-2.224;2023-05-21T12:30:41;101914.90;;;28.27;16.12
46682;BME280;34101;53.430;-2.224;2023-05-21T12:33:09;101911.84;;;28.21;17.33
46682;BME280;34101;53.430;-2.224;2023-05-21T12:35:36;101914.38;;;28.24;17.33
46682;BME280;34101;53.430;-2.224;2023-05-21T12:38:04;101910.04;;;28.09;18.07
46682;BME280;34101;53.430;-2.224;2023-05-21T12:40:38;101909.18;;;28.09;17.68
46682;BME280;34101;53.430;-2.224;2023-05-21T12:43:06;101912.03;;;28.12;17.76
46682;BME280;34101;53.430;-2.224;2023-05-21T12:45:33;101914.17;;;27.86;17.12
46682;BME280;34101;53.430;-2.224;2023-05-21T12:48:02;101907.70;;;27.48;17.46
46682;BME280;34101;53.430;-2.224;2023-05-21T12:50:29;101907.90;;;27.44;18.52